Time;durP1;ratioP1;P1;durP2;ratioP2;P2;SDS_P1;SDS_P2;PMS_P1;PMS_P2;Temp;Humidity;BMP_temperature;BMP_pressure;BME280_temperature;BME280_humidity;BME280_pressure;Samples;Min_cycle;Max_cycle;Signal;HPM_P1;HPM_P2
2023/08/24 00:00:56;;;;;;;;;8.00;8.00;;;;;30.97;93.17;100804.06;2123547;27;46788;-66
2023/08/24 00:01:56;;;;;;;;;10.50;9.50;;;;;30.96;92.90;100799.59;2122564;27;46668;-66
2023/08/24 00:02:57;;;;;;;;;7.50;7.50;;;;;30.95;92.89;100800.63;2113920;27;46274;-67
2023/08/24 00:03:58;;;;;;;;;10.00;9.00;;;;;30.95;92.84;100806.09;2116815;27;46636;-66
2023/08/24 00:04:58;;;;;;;;;7.75;7.00;;;;;30.95;93.13;100808.84;2122717;27;46234;-67
2023/08/24 00:05:58;;;;;;;;;8.50;8.50;;;;;30.93;93.20;100802.66;2122572;27;46482;-66
2023/08/24 00:06:59;;;;;;;;;9.00;9.00;;;;;30.91;93.03;100804.72;2122782;27;45998;-66
2023/08/24 00:07:59;;;;;;;;;9.00;7.00;;;;;30.91;93.38;100804.72;2122651;27;46578;-66
2023/08/24 00:08:59;;;;;;;;;9.00;7.75;;;;;30.92;93.77;100806.44;2115513;27;46338;-67
2023/08/24 00:10:00;;;;;;;;;6.00;6.00;;;;;30.90;93.78;100809.34;2122816;27;46265;-66
2023/08/24 00:11:00;;;;;;;;;10.00;9.25;;;;;30.91;93.53;100799.25;2123210;27;46241;-65
2023/08/24 00:12:00;;;;;;;;;8.00;7.00;;;;;30.92;93.67;100798.22;2122320;27;46214;-65
2023/08/24 00:13:01;;;;;;;;;8.50;8.50;;;;;30.92;93.07;100807.28;2113069;27;46737;-66
2023/08/24 00:14:02;;;;;;;;;7.00;5.80;;;;;30.92;93.84;100801.81;2113347;27;46441;-66
2023/08/24 00:15:03;;;;;;;;;9.25;9.25;;;;;30.95;93.55;100803.34;2122535;27;46686;-66
2023/08/24 00:16:04;;;;;;;;;8.25;8.25;;;;;30.94;93.06;100796.16;2119404;27;46601;-66
2023/08/24 00:17:04;;;;;;;;;7.00;7.00;;;;;30.94;92.94;100797.03;2122222;27;46431;-68
2023/08/24 00:18:05;;;;;;;;;9.00;9.00;;;;;30.94;93.12;100797.03;2120321;27;46435;-66
2023/08/24 00:19:06;;;;;;;;;8.00;7.00;;;;;30.94;92.96;100799.75;2119181;27;47125;-66
2023/08/24 00:20:10;;;;;;;;;6.00;5.67;;;;;30.95;93.20;100795.13;2122656;27;46822;-66
2023/08/24 00:21:12;;;;;;;;;9.80;8.80;;;;;30.96;92.92;100797.72;2108583;27;47102;-66
2023/08/24 00:22:13;;;;;;;;;8.00;8.00;;;;;30.95;92.62;100793.25;2114128;27;46566;-66
2023/08/24 00:23:13;;;;;;;;;7.67;7.67;;;;;30.97;93.23;100790.34;2122554;27;46319;-67
2023/08/24 00:24:14;;;;;;;;;7.67;7.67;;;;;30.99;93.19;100788.28;2122824;27;46963;-66
2023/08/24 00:25:14;;;;;;;;;8.00;8.00;;;;;30.98;93.16;100790.19;2122478;27;46766;-67
2023/08/24 00:26:16;;;;;;;;;9.33;9.00;;;;;30.98;93.19;100786.59;2122121;27;46726;-66
2023/08/24 00:27:17;;;;;;;;;9.00;8.25;;;;;30.96;93.02;100786.75;2122431;27;47195;-66
2023/08/24 00:28:17;;;;;;;;;9.00;9.00;;;;;30.96;93.63;100788.63;2122596;27;46805;-65
2023/08/24 00:29:17;;;;;;;;;10.00;10.00;;;;;30.96;93.55;100796.84;2120212;27;46697;-67
2023/08/24 00:30:18;;;;;;;;;7.00;7.00;;;;;30.96;93.45;100796.84;2118193;27;46657;-66
2023/08/24 00:31:18;;;;;;;;;6.67;6.67;;;;;30.95;93.55;100795.13;2123002;27;45546;-67
2023/08/24 00:32:19;;;;;;;;;8.00;7.00;;;;;30.95;93.81;100803.34;2122069;27;46642;-67
2023/08/24 00:33:19;;;;;;;;;8.00;8.00;;;;;30.93;93.13;100798.03;2122671;27;46588;-66
2023/08/24 00:34:19;;;;;;;;;7.50;7.50;;;;;30.93;93.21;100803.53;2118930;27;46814;-67
2023/08/24 00:35:20;;;;;;;;;9.25;8.00;;;;;30.91;93.87;100799.25;2122888;27;46365;-67
2023/08/24 00:36:22;;;;;;;;;9.00;8.25;;;;;30.91;93.28;100796.50;2112128;27;46675;-67
2023/08/24 00:37:23;;;;;;;;;9.60;9.00;;;;;30.91;93.87;100801.97;2113780;27;45345;-66
2023/08/24 00:38:23;;;;;;;;;7.25;7.25;;;;;30.91;93.52;100805.56;2120871;27;46376;-66
2023/08/24 00:39:23;;;;;;;;;10.25;9.50;;;;;30.90;93.86;100801.13;2120494;27;46607;-66
2023/08/24 00:40:24;;;;;;;;;9.25;9.00;;;;;30.89;93.90;100795.81;2122326;27;46694;-67
2023/08/24 00:41:25;;;;;;;;;9.40;9.40;;;;;30.92;94.43;100800.94;2122206;27;46801;-66
2023/08/24 00:42:26;;;;;;;;;8.00;8.00;;;;;30.89;93.83;100793.06;2122557;27;46553;-67
2023/08/24 00:43:27;;;;;;;;;8.25;8.25;;;;;30.90;94.72;100800.25;2122945;27;45898;-66
2023/08/24 00:44:27;;;;;;;;;8.60;8.60;;;;;30.90;94.31;100801.13;2122253;27;46333;-66
2023/08/24 00:45:27;;;;;;;;;7.50;7.50;;;;;30.90;94.43;100803.88;2122089;27;46390;-66
2023/08/24 00:46:28;;;;;;;;;7.00;7.00;;;;;30.88;94.32;100791.34;2122358;27;46962;-66
2023/08/24 00:47:29;;;;;;;;;6.00;6.00;;;;;30.87;94.70;100800.56;2122376;27;46669;-66
2023/08/24 00:48:31;;;;;;;;;9.25;9.25;;;;;30.84;94.63;100790.78;2122136;27;46400;-67
2023/08/24 00:49:31;;;;;;;;;8.50;8.50;;;;;30.84;94.70;100798.16;2121463;27;46157;-66
2023/08/24 00:50:31;;;;;;;;;7.33;7.33;;;;;30.82;94.87;100798.31;2119986;27;46936;-66
2023/08/24 00:51:32;;;;;;;;;10.67;9.67;;;;;30.82;95.41;100800.22;2115379;27;46345;-67
2023/08/24 00:52:33;;;;;;;;;8.00;8.00;;;;;30.80;94.87;100797.63;2117138;27;46297;-67
2023/08/24 00:53:34;;;;;;;;;8.50;8.50;;;;;30.79;95.15;100795.91;2122100;27;46824;-66
2023/08/24 00:54:39;;;;;;;;;7.25;7.25;;;;;30.78;94.89;100796.94;2121644;27;46432;-66
2023/08/24 00:55:39;;;;;;;;;9.25;9.25;;;;;30.76;95.76;100799.00;2122372;27;46852;-66
2023/08/24 00:56:40;;;;;;;;;9.33;7.67;;;;;30.74;95.01;100801.84;2127002;27;46758;-67
2023/08/24 00:57:41;;;;;;;;;9.00;9.00;;;;;30.75;95.57;100794.53;2122439;27;46650;-66
2023/08/24 00:58:44;;;;;;;;;8.00;8.00;;;;;30.73;95.20;100797.41;2122319;27;46620;-67
2023/08/24 00:59:45;;;;;;;;;8.75;8.00;;;;;30.72;95.46;100798.44;2117156;27;46924;-65
2023/08/24 01:00:45;;;;;;;;;7.60;7.00;;;;;30.71;95.57;100795.84;2121623;27;46710;-66
2023/08/24 01:01:47;;;;;;;;;8.25;8.25;;;;;30.71;96.06;100804.94;2120515;27;46434;-65
2023/08/24 01:02:47;;;;;;;;;8.00;8.00;;;;;30.71;96.36;100798.59;2121953;27;45367;-64
2023/08/24 01:03:47;;;;;;;;;9.33;9.33;;;;;30.71;96.38;100801.34;2122337;27;46166;-66
2023/08/24 01:04:48;;;;;;;;;8.67;8.67;;;;;30.71;96.15;100796.72;2121984;27;44996;-66
2023/08/24 01:05:48;;;;;;;;;7.00;7.00;;;;;30.72;95.42;100801.16;2120591;27;46823;-66
2023/08/24 01:06:49;;;;;;;;;8.50;8.50;;;;;30.73;95.94;100805.63;2118873;27;46705;-65
2023/08/24 01:07:49;;;;;;;;;8.25;7.75;;;;;30.72;96.25;100801.16;2122215;27;45522;-66
2023/08/24 01:08:50;;;;;;;;;7.50;7.25;;;;;30.73;95.79;100802.03;2121922;27;46339;-66
2023/08/24 01:09:52;;;;;;;;;8.75;8.75;;;;;30.73;95.90;100805.63;2122603;27;46609;-66
2023/08/24 01:11:12;;;;;;;;;8.40;8.20;;;;;30.73;95.86;100802.03;2122039;27;46333;-65
2023/08/24 01:12:51;;;;;;;;;6.00;6.00;;;;;30.76;95.95;100812.69;2122528;27;46304;-66
2023/08/24 01:14:07;;;;;;;;;8.80;8.80;;;;;30.75;96.26;100805.50;2122525;27;46428;-65
2023/08/24 01:15:23;;;;;;;;;7.80;7.80;;;;;30.75;96.06;100800.88;2122403;27;46674;-67
2023/08/24 01:16:29;;;;;;;;;8.60;8.60;;;;;30.75;95.97;100803.59;2122307;27;45583;-65
2023/08/24 01:17:30;;;;;;;;;7.80;7.80;;;;;30.76;96.71;100804.47;2121718;27;46488;-67
2023/08/24 01:18:33;;;;;;;;;9.40;9.20;;;;;30.76;96.26;100796.25;2122244;27;46573;-66
2023/08/24 01:19:39;;;;;;;;;9.40;9.40;;;;;30.76;96.48;100801.72;2122546;27;46723;-67
2023/08/24 01:20:41;;;;;;;;;9.00;9.00;;;;;30.75;96.88;100808.22;2122128;27;46969;-65
2023/08/24 01:21:42;;;;;;;;;9.40;8.00;;;;;30.74;96.34;100792.78;2120804;27;46348;-67
2023/08/24 01:22:56;;;;;;;;;10.50;9.50;;;;;30.74;96.96;100795.53;2122553;27;46530;-66
2023/08/24 01:24:07;;;;;;;;;9.40;9.40;;;;;30.74;97.22;100796.38;2121952;27;46842;-66
2023/08/24 01:25:40;;;;;;;;;7.20;7.20;;;;;30.73;97.42;100794.66;2122526;27;46373;-66
2023/08/24 01:26:41;;;;;;;;;8.00;8.00;;;;;30.70;97.38;100794.13;2086938;28;46275;-65
2023/08/24 01:27:43;;;;;;;;;9.60;7.60;;;;;30.71;97.09;100796.72;2087637;28;46306;-66
2023/08/24 01:28:45;;;;;;;;;8.40;7.20;;;;;30.70;97.64;100795.00;2087318;28;46189;-65
2023/08/24 01:29:45;;;;;;;;;9.20;9.00;;;;;30.69;97.32;100792.41;2087226;28;46562;-66
2023/08/24 01:30:46;;;;;;;;;7.75;7.75;;;;;30.68;98.02;100786.09;2078736;28;46206;-66
2023/08/24 01:31:49;;;;;;;;;9.50;9.50;;;;;30.65;97.95;100788.28;2079002;28;47894;-66
2023/08/24 01:32:49;;;;;;;;;8.20;8.20;;;;;30.61;98.54;100786.84;2086855;28;46458;-65
2023/08/24 01:33:50;;;;;;;;;8.50;8.50;;;;;30.64;98.53;100786.59;2079369;28;46653;-65
2023/08/24 01:34:50;;;;;;;;;8.00;7.75;;;;;30.62;98.39;100781.22;2085928;28;47207;-66
2023/08/24 01:35:51;;;;;;;;;10.50;9.25;;;;;30.62;98.17;100786.72;2079000;28;46899;-67
2023/08/24 01:36:51;;;;;;;;;8.50;8.50;;;;;30.61;98.04;100776.75;2079002;28;46293;-66
2023/08/24 01:37:52;;;;;;;;;10.25;9.50;;;;;30.60;98.45;100786.00;2078897;28;46563;-67
2023/08/24 01:39:11;;;;;;;;;10.50;9.00;;;;;30.60;99.27;100786.00;2069678;28;46998;-66
2023/08/24 01:40:36;;;;;;;;;8.00;8.00;;;;;30.59;99.09;100780.69;2081456;28;46520;-66
2023/08/24 01:41:42;;;;;;;;;8.60;8.60;;;;;30.56;98.96;100781.00;2087507;28;46467;-66
2023/08/24 01:42:49;;;;;;;;;9.20;8.00;;;;;30.53;99.39;100778.59;2085347;28;46601;-66
2023/08/24 01:43:53;;;;;;;;;9.20;9.20;;;;;30.55;99.11;100785.63;2082104;28;46736;-66
2023/08/24 01:44:58;;;;;;;;;8.00;8.00;;;;;30.50;99.58;100779.78;2087397;28;46377;-66
2023/08/24 01:45:59;;;;;;;;;9.60;9.60;;;;;30.52;99.63;100780.47;2086962;28;46362;-65
2023/08/24 01:47:04;;;;;;;;;9.40;9.40;;;;;30.51;99.26;100770.53;2087386;28;46606;-66
2023/08/24 01:48:05;;;;;;;;;8.40;7.80;;;;;30.51;99.49;100777.91;2087677;28;46609;-65
2023/08/24 01:49:08;;;;;;;;;8.40;7.60;;;;;30.51;99.76;100772.44;2087129;28;46728;-67
2023/08/24 01:50:09;;;;;;;;;9.00;9.00;;;;;30.49;100.00;100769.81;2087324;28;47230;-66
2023/08/24 01:51:10;;;;;;;;;7.80;7.00;;;;;30.46;99.68;100764.66;2085461;28;46557;-66
2023/08/24 01:52:12;;;;;;;;;7.25;7.25;;;;;30.49;100.00;100764.34;2087051;28;45634;-67
2023/08/24 01:53:12;;;;;;;;;7.00;7.00;;;;;30.48;100.00;100768.09;2087311;28;46722;-66
2023/08/24 01:54:13;;;;;;;;;8.00;8.00;;;;;30.48;100.00;100760.75;2087544;28;46387;-66
2023/08/24 01:55:15;;;;;;;;;9.00;9.00;;;;;30.47;100.00;100760.91;2086958;28;46519;-65
2023/08/24 01:56:16;;;;;;;;;8.00;7.75;;;;;30.45;100.00;100763.81;2086168;28;46257;-65
2023/08/24 01:57:16;;;;;;;;;8.00;6.75;;;;;30.44;100.00;100758.50;2086818;28;46710;-65
2023/08/24 01:58:17;;;;;;;;;9.50;9.50;;;;;30.44;100.00;100767.56;2085431;28;46319;-66
2023/08/24 01:59:17;;;;;;;;;9.33;9.33;;;;;30.43;100.00;100754.03;2083858;28;46116;-66
2023/08/24 02:00:17;;;;;;;;;8.67;8.67;;;;;30.43;100.00;100763.13;2088859;28;46304;-66
2023/08/24 02:01:18;;;;;;;;;10.25;10.25;;;;;30.43;100.00;100756.78;2084076;28;46826;-66
2023/08/24 02:02:18;;;;;;;;;7.33;7.33;;;;;30.40;100.00;100754.38;2086245;28;46787;-65
2023/08/24 02:03:18;;;;;;;;;9.50;9.50;;;;;30.41;100.00;100758.84;2078843;28;46342;-67
2023/08/24 02:04:19;;;;;;;;;8.33;8.33;;;;;30.39;100.00;100756.25;2101321;27;46070;-67
2023/08/24 02:05:19;;;;;;;;;10.00;9.33;;;;;30.39;100.00;100756.25;2121861;27;46745;-65
2023/08/24 02:06:19;;;;;;;;;8.25;7.00;;;;;30.39;100.00;100755.41;2122701;27;46446;-66
2023/08/24 02:07:20;;;;;;;;;7.00;7.00;;;;;30.39;100.00;100750.78;2122504;27;46400;-66
2023/08/24 02:08:20;;;;;;;;;7.33;7.00;;;;;30.40;100.00;100759.84;2111531;27;46190;-66
2023/08/24 02:09:20;;;;;;;;;10.00;10.00;;;;;30.38;100.00;100748.22;2112109;27;46185;-66
2023/08/24 02:10:21;;;;;;;;;7.33;7.33;;;;;30.40;100.00;100751.63;2122409;27;46445;-67
2023/08/24 02:11:21;;;;;;;;;8.50;8.00;;;;;30.39;100.00;100753.53;2122149;27;46176;-66
2023/08/24 02:12:21;;;;;;;;;9.00;9.00;;;;;30.36;100.00;100751.06;2121391;27;46254;-65
2023/08/24 02:13:22;;;;;;;;;10.75;10.25;;;;;30.36;100.00;100750.22;2121445;27;46264;-66
2023/08/24 02:14:22;;;;;;;;;8.33;8.33;;;;;30.36;100.00;100752.97;2121963;27;46463;-66
2023/08/24 02:15:24;;;;;;;;;7.80;7.60;;;;;30.35;100.00;100746.63;2121653;27;47048;-66
2023/08/24 02:16:24;;;;;;;;;10.50;9.00;;;;;30.36;100.00;100744.75;2121245;27;46191;-65
2023/08/24 02:17:26;;;;;;;;;8.00;8.00;;;;;30.35;100.00;100743.03;2112652;27;45816;-66
2023/08/24 02:18:26;;;;;;;;;10.75;8.00;;;;;30.32;100.00;100746.94;2112631;27;46496;-65
2023/08/24 02:19:26;;;;;;;;;7.00;7.00;;;;;30.31;100.00;100744.38;2121634;27;46224;-65
2023/08/24 02:20:27;;;;;;;;;8.75;8.75;;;;;30.30;100.00;100743.53;2121841;27;45813;-65
2023/08/24 02:21:27;;;;;;;;;8.33;8.33;;;;;30.32;100.00;100744.22;2109142;27;46718;-65
2023/08/24 02:22:28;;;;;;;;;10.00;9.00;;;;;30.33;100.00;100742.34;2112579;27;46640;-66
2023/08/24 02:23:29;;;;;;;;;7.00;7.00;;;;;30.33;100.00;100739.59;2121698;27;46350;-66
2023/08/24 02:24:29;;;;;;;;;10.33;10.33;;;;;30.31;100.00;100742.50;2121403;27;46399;-66
2023/08/24 02:25:30;;;;;;;;;9.67;9.67;;;;;30.31;100.00;100739.75;2121960;27;47051;-66
2023/08/24 02:26:30;;;;;;;;;10.67;10.00;;;;;30.30;100.00;100739.94;2121542;27;46813;-65
2023/08/24 02:27:31;;;;;;;;;10.50;10.00;;;;;30.29;100.00;100733.59;2121942;27;45994;-65
2023/08/24 02:28:33;;;;;;;;;7.25;7.25;;;;;30.28;100.00;100731.88;2118953;27;46797;-66
2023/08/24 02:29:33;;;;;;;;;9.80;9.60;;;;;30.25;100.00;100734.09;2115738;27;46772;-66
2023/08/24 02:30:37;;;;;;;;;10.00;10.00;;;;;30.23;100.00;100734.22;2121604;27;46672;-65
2023/08/24 02:31:37;;;;;;;;;6.75;6.00;;;;;30.22;100.00;100737.13;2117908;27;46353;-66
2023/08/24 02:32:37;;;;;;;;;11.00;7.33;;;;;30.21;100.00;100735.41;2118783;27;46287;-66
2023/08/24 02:33:38;;;;;;;;;8.00;8.00;;;;;30.21;100.00;100729.91;2111908;27;45627;-66
2023/08/24 02:34:38;;;;;;;;;10.00;10.00;;;;;30.19;100.00;100721.88;2114247;27;46688;-65
2023/08/24 02:35:39;;;;;;;;;9.33;9.00;;;;;30.17;100.00;100719.31;2121943;27;46917;-66
2023/08/24 02:36:39;;;;;;;;;9.00;9.00;;;;;30.16;100.00;100722.19;2122220;27;46363;-65
2023/08/24 02:37:40;;;;;;;;;9.75;9.75;;;;;30.16;100.00;100722.19;2121471;27;46569;-65
2023/08/24 02:38:40;;;;;;;;;9.25;8.25;;;;;30.14;100.00;100721.50;2121956;27;46260;-66
2023/08/24 02:39:40;;;;;;;;;12.25;10.75;;;;;30.13;100.00;100719.78;2121497;27;46384;-66
2023/08/24 02:40:41;;;;;;;;;9.75;9.75;;;;;30.14;100.00;100721.50;2121536;27;46679;-65
2023/08/24 02:41:41;;;;;;;;;9.75;8.75;;;;;30.12;100.00;100718.94;2121561;27;46336;-66
2023/08/24 02:42:42;;;;;;;;;8.75;8.75;;;;;30.12;100.00;100718.94;2122863;27;47198;-66
2023/08/24 02:43:42;;;;;;;;;8.75;8.75;;;;;30.12;100.00;100715.34;2121666;27;46337;-66
2023/08/24 02:44:42;;;;;;;;;9.75;8.50;;;;;30.12;100.00;100715.34;2111095;27;46326;-65
2023/08/24 02:45:42;;;;;;;;;10.50;10.50;;;;;30.13;100.00;100715.19;2112363;27;46340;-65
2023/08/24 02:46:44;;;;;;;;;8.33;7.00;;;;;30.10;100.00;100712.72;2119354;27;46312;-66
2023/08/24 02:47:44;;;;;;;;;7.75;7.75;;;;;30.09;100.00;100708.28;2121485;27;46342;-66
2023/08/24 02:48:45;;;;;;;;;8.00;8.00;;;;;30.09;100.00;100711.03;2121191;27;46735;-65
2023/08/24 02:49:46;;;;;;;;;8.67;8.67;;;;;30.09;100.00;100701.94;2121592;27;46492;-66
2023/08/24 02:50:47;;;;;;;;;8.50;8.50;;;;;30.08;100.00;100706.56;2125032;27;46343;-66
2023/08/24 02:51:47;;;;;;;;;8.60;8.60;;;;;30.09;100.00;100705.53;2120990;27;47401;-66
2023/08/24 02:52:48;;;;;;;;;7.50;7.50;;;;;30.09;100.00;100699.22;2116641;27;46645;-65
2023/08/24 02:53:49;;;;;;;;;8.75;8.75;;;;;30.07;100.00;100693.03;2121768;27;46492;-66
2023/08/24 02:54:49;;;;;;;;;10.20;10.20;;;;;30.07;100.00;100702.13;2121720;27;46391;-66
2023/08/24 02:55:49;;;;;;;;;9.25;9.25;;;;;30.07;100.00;100698.53;2121196;27;46262;-65
2023/08/24 02:56:50;;;;;;;;;8.75;8.00;;;;;30.05;100.00;100700.53;2121321;27;46078;-66
2023/08/24 02:57:50;;;;;;;;;9.00;8.00;;;;;30.05;100.00;100690.47;2121385;27;47320;-66
2023/08/24 02:58:51;;;;;;;;;8.25;8.25;;;;;30.05;100.00;100704.16;2121460;27;46597;-65
2023/08/24 02:59:51;;;;;;;;;8.00;8.00;;;;;30.02;100.00;100685.28;2122265;27;46913;-66
2023/08/24 03:00:51;;;;;;;;;8.25;8.00;;;;;30.04;100.00;100691.47;2121722;27;46262;-66
2023/08/24 03:01:52;;;;;;;;;7.25;7.25;;;;;30.04;100.00;100685.13;2122576;27;46445;-65
2023/08/24 03:02:53;;;;;;;;;9.00;9.00;;;;;30.03;100.00;100677.94;2112565;27;46777;-65
2023/08/24 03:03:53;;;;;;;;;6.00;6.00;;;;;30.06;100.00;100688.59;2113538;27;46975;-65
2023/08/24 03:04:55;;;;;;;;;9.00;7.25;;;;;30.04;100.00;100683.25;2119674;27;46190;-65
2023/08/24 03:06:04;;;;;;;;;7.20;7.20;;;;;30.03;100.00;100678.78;2113620;27;46843;-65
2023/08/24 03:07:07;;;;;;;;;8.00;8.00;;;;;30.00;100.00;100681.88;2120152;27;46498;-66
2023/08/24 03:08:07;;;;;;;;;7.60;7.60;;;;;29.97;100.00;100687.63;2123230;27;47292;-66
2023/08/24 03:09:08;;;;;;;;;8.00;8.00;;;;;29.97;100.00;100676.69;2122939;27;46530;-65
2023/08/24 03:10:08;;;;;;;;;9.00;9.00;;;;;29.99;100.00;100682.03;2122972;27;46369;-66
2023/08/24 03:11:09;;;;;;;;;10.00;10.00;;;;;29.98;100.00;100678.41;2114053;27;46145;-65
2023/08/24 03:12:09;;;;;;;;;10.50;10.00;;;;;29.96;100.00;100672.22;2113519;27;46364;-66
2023/08/24 03:13:09;;;;;;;;;6.75;6.75;;;;;29.96;100.00;100676.84;2125244;27;46228;-66
2023/08/24 03:14:10;;;;;;;;;9.00;9.00;;;;;29.97;100.00;100671.22;2122703;27;46213;-66
2023/08/24 03:15:10;;;;;;;;;8.00;8.00;;;;;29.96;100.00;100668.63;2122823;27;46392;-66
2023/08/24 03:16:10;;;;;;;;;13.75;10.50;;;;;29.95;100.00;100673.25;2104614;28;46814;-66
2023/08/24 03:17:11;;;;;;;;;9.00;9.00;;;;;29.96;100.00;100674.97;2103288;28;46223;-66
2023/08/24 03:18:15;;;;;;;;;11.00;11.00;;;;;29.97;100.00;100679.41;2123437;27;45779;-65
2023/08/24 03:19:17;;;;;;;;;10.60;10.60;;;;;29.96;100.00;100668.63;2122869;27;47432;-66
2023/08/24 03:20:19;;;;;;;;;12.25;10.50;;;;;29.96;100.00;100665.91;2122802;27;46697;-65
2023/08/24 03:21:19;;;;;;;;;9.00;9.00;;;;;29.97;100.00;100678.56;2122938;27;46313;-65
2023/08/24 03:22:19;;;;;;;;;11.50;11.25;;;;;29.97;100.00;100668.47;2122743;27;46653;-66
2023/08/24 03:23:20;;;;;;;;;10.75;10.75;;;;;29.98;100.00;100667.44;2113427;27;46246;-66
2023/08/24 03:24:20;;;;;;;;;10.33;10.33;;;;;29.98;100.00;100666.59;2105078;28;46805;-66
2023/08/24 03:25:21;;;;;;;;;10.00;9.67;;;;;29.97;100.00;100673.94;2113972;27;46916;-65
2023/08/24 03:26:23;;;;;;;;;8.33;8.33;;;;;29.98;100.00;100658.38;2122688;27;46508;-66
2023/08/24 03:27:23;;;;;;;;;9.00;7.40;;;;;29.97;100.00;100657.53;2122536;27;46827;-66
2023/08/24 03:28:23;;;;;;;;;8.50;8.50;;;;;29.98;100.00;100658.38;2122827;27;46606;-66
2023/08/24 03:29:24;;;;;;;;;11.00;11.00;;;;;29.97;100.00;100663.00;2123087;27;46588;-64
2023/08/24 03:30:24;;;;;;;;;8.50;8.50;;;;;29.97;100.00;100670.34;2113967;27;46221;-66
2023/08/24 03:31:25;;;;;;;;;10.50;10.00;;;;;29.93;100.00;100666.22;2096695;28;46644;-66
2023/08/24 03:32:26;;;;;;;;;8.20;8.20;;;;;29.91;100.00;100660.91;2105364;27;46570;-65
2023/08/24 03:33:27;;;;;;;;;10.25;10.25;;;;;29.89;100.00;100663.81;2122517;27;46226;-66
2023/08/24 03:34:29;;;;;;;;;10.25;10.25;;;;;29.89;100.00;100662.97;2122775;27;46035;-65
2023/08/24 03:35:33;;;;;;;;;16.20;15.00;;;;;29.88;100.00;100658.50;2121686;27;45671;-66
2023/08/24 03:36:33;;;;;;;;;22.80;21.60;;;;;29.86;100.00;100655.09;2123226;27;46462;-66
2023/08/24 03:37:34;;;;;;;;;21.50;20.00;;;;;29.87;100.00;100656.78;2127178;27;46865;-66
2023/08/24 03:38:34;;;;;;;;;14.50;14.50;;;;;29.85;100.00;100654.19;2116889;27;46588;-66
2023/08/24 03:39:37;;;;;;;;;13.00;10.00;;;;;29.81;100.00;100655.53;2123091;27;45614;-66
2023/08/24 03:40:37;;;;;;;;;9.20;9.00;;;;;29.78;100.00;100652.28;2122833;27;47006;-66
2023/08/24 03:41:38;;;;;;;;;10.00;10.00;;;;;29.75;100.00;100658.91;2122865;27;46103;-66
2023/08/24 03:42:39;;;;;;;;;10.75;10.75;;;;;29.74;100.00;100657.22;2122627;27;46392;-66
2023/08/24 03:43:39;;;;;;;;;9.75;9.75;;;;;29.75;100.00;100658.91;2122550;27;46153;-66
2023/08/24 03:44:39;;;;;;;;;9.25;8.75;;;;;29.74;100.00;100657.22;2122844;27;45941;-66
2023/08/24 03:45:42;;;;;;;;;11.00;11.00;;;;;29.75;100.00;100658.06;2120986;27;46358;-65
2023/08/24 03:46:42;;;;;;;;;8.20;8.20;;;;;29.76;100.00;100654.31;2122848;27;46976;-66
2023/08/24 03:47:42;;;;;;;;;9.00;8.50;;;;;29.74;100.00;100654.47;2122043;27;46639;-66
2023/08/24 03:48:44;;;;;;;;;9.50;9.50;;;;;29.75;100.00;100653.44;2122649;27;46734;-66
2023/08/24 03:49:44;;;;;;;;;8.20;8.20;;;;;29.74;100.00;100654.47;2113557;27;46267;-65
2023/08/24 03:50:44;;;;;;;;;8.00;8.00;;;;;29.73;100.00;100650.03;2108827;27;46327;-66
2023/08/24 03:51:45;;;;;;;;;8.00;8.00;;;;;29.72;100.00;100656.47;2114706;27;46982;-67
2023/08/24 03:52:45;;;;;;;;;15.25;13.50;;;;;29.73;100.00;100651.88;2122706;27;46894;-66
2023/08/24 03:53:45;;;;;;;;;10.00;10.00;;;;;29.72;100.00;100653.75;2113579;27;46646;-66
2023/08/24 03:54:46;;;;;;;;;10.00;9.75;;;;;29.70;100.00;100650.31;2113527;27;46527;-67
2023/08/24 03:55:51;;;;;;;;;10.50;10.50;;;;;29.72;100.00;100650.16;2122423;27;46825;-66
2023/08/24 03:56:51;;;;;;;;;8.60;8.60;;;;;29.71;100.00;100649.28;2122605;27;46778;-66
2023/08/24 03:57:54;;;;;;;;;10.00;10.00;;;;;29.72;100.00;100650.16;2122708;27;47024;-66
2023/08/24 03:58:54;;;;;;;;;9.20;8.40;;;;;29.72;100.00;100648.28;2121018;27;46419;-65
2023/08/24 03:59:54;;;;;;;;;8.25;8.25;;;;;29.71;100.00;100643.81;2113670;27;46263;-65
2023/08/24 04:00:55;;;;;;;;;10.25;10.00;;;;;29.71;100.00;100645.69;2113629;27;46345;-66
2023/08/24 04:01:55;;;;;;;;;11.00;11.00;;;;;29.71;100.00;100643.81;2122070;27;46705;-66
2023/08/24 04:02:55;;;;;;;;;9.50;9.50;;;;;29.71;100.00;100637.50;2122956;27;46240;-67
2023/08/24 04:03:57;;;;;;;;;9.00;9.00;;;;;29.70;100.00;100639.38;2125072;27;46632;-66
2023/08/24 04:04:57;;;;;;;;;10.20;10.20;;;;;29.70;100.00;100638.50;2122664;27;46610;-66
2023/08/24 04:05:58;;;;;;;;;10.25;10.00;;;;;29.69;100.00;100639.53;2121421;27;46716;-66
2023/08/24 04:06:58;;;;;;;;;9.00;9.00;;;;;29.68;100.00;100630.47;2118343;27;46394;-67
2023/08/24 04:08:00;;;;;;;;;8.75;8.75;;;;;29.70;100.00;100633.91;2116079;27;46167;-67
2023/08/24 04:09:01;;;;;;;;;10.60;10.60;;;;;29.69;100.00;100639.53;2122543;27;47008;-66
2023/08/24 04:10:01;;;;;;;;;8.25;7.00;;;;;29.69;100.00;100645.00;2119611;27;45855;-65
2023/08/24 04:11:01;;;;;;;;;8.50;8.50;;;;;29.66;100.00;100637.97;2113990;27;46248;-65
2023/08/24 04:12:02;;;;;;;;;9.00;9.00;;;;;29.67;100.00;100644.31;2121983;27;46097;-66
2023/08/24 04:13:02;;;;;;;;;8.00;8.00;;;;;29.65;100.00;100644.47;2122673;27;46356;-66
2023/08/24 04:14:02;;;;;;;;;8.50;8.50;;;;;29.66;100.00;100639.88;2122455;27;46740;-66
2023/08/24 04:15:04;;;;;;;;;6.00;6.00;;;;;29.64;100.00;100642.75;2116565;27;46685;-62
2023/08/24 04:16:05;;;;;;;;;7.80;7.80;;;;;29.65;100.00;100649.94;2108153;27;46553;-64
2023/08/24 04:17:05;;;;;;;;;11.50;11.00;;;;;29.66;100.00;100648.94;2113698;27;46212;-64
2023/08/24 04:18:05;;;;;;;;;8.75;8.75;;;;;29.69;100.00;100642.28;2122680;27;46529;-63
2023/08/24 04:19:06;;;;;;;;;9.25;9.25;;;;;29.69;100.00;100651.34;2122710;27;46851;-62
2023/08/24 04:20:07;;;;;;;;;9.75;9.75;;;;;29.68;100.00;100641.41;2116291;27;46252;-62
2023/08/24 04:21:08;;;;;;;;;10.00;8.80;;;;;29.69;100.00;100639.53;2122278;27;45707;-62
2023/08/24 04:22:08;;;;;;;;;8.25;8.25;;;;;29.71;100.00;100641.09;2120215;27;46350;-62
2023/08/24 04:23:10;;;;;;;;;11.25;10.00;;;;;29.69;100.00;100640.41;2112495;27;46816;-63
2023/08/24 04:24:10;;;;;;;;;9.80;9.40;;;;;29.70;100.00;100633.91;2112562;27;46599;-62
2023/08/24 04:25:10;;;;;;;;;9.00;8.00;;;;;29.72;100.00;100641.94;2122694;27;46378;-60
2023/08/24 04:26:12;;;;;;;;;8.00;8.00;;;;;29.72;100.00;100640.06;2121968;27;46983;-63
2023/08/24 04:27:12;;;;;;;;;9.60;9.60;;;;;29.72;100.00;100634.59;2122137;27;46542;-63
2023/08/24 04:28:12;;;;;;;;;7.00;7.00;;;;;29.71;100.00;100637.50;2122498;27;46374;-58
2023/08/24 04:29:13;;;;;;;;;13.25;13.25;;;;;29.70;100.00;100638.50;2122193;27;46595;-57
2023/08/24 04:30:13;;;;;;;;;12.00;12.00;;;;;29.70;100.00;100638.50;2122486;27;46874;-60
2023/08/24 04:31:14;;;;;;;;;12.00;10.75;;;;;29.69;100.00;100642.28;2122458;27;47018;-62
2023/08/24 04:32:14;;;;;;;;;10.25;10.25;;;;;29.68;100.00;100635.94;2121280;27;46774;-61
2023/08/24 04:33:14;;;;;;;;;10.25;9.25;;;;;29.64;100.00;100634.56;2122518;27;46812;-62
2023/08/24 04:34:15;;;;;;;;;8.25;8.25;;;;;29.62;100.00;100630.25;2122309;27;46592;-62
2023/08/24 04:35:15;;;;;;;;;11.00;11.00;;;;;29.59;100.00;100626.81;2122360;27;46070;-63
2023/08/24 04:36:15;;;;;;;;;8.00;8.00;;;;;29.58;100.00;100629.69;2122780;27;46317;-63
2023/08/24 04:37:16;;;;;;;;;8.00;8.00;;;;;29.58;100.00;100624.22;2122713;27;46231;-62
2023/08/24 04:38:17;;;;;;;;;10.00;8.75;;;;;29.56;100.00;100626.28;2122124;27;46960;-61
2023/08/24 04:39:18;;;;;;;;;9.50;9.00;;;;;29.56;100.00;100623.53;2121661;27;45833;-63
2023/08/24 04:40:19;;;;;;;;;8.25;8.25;;;;;29.56;100.00;100627.13;2113451;27;46774;-64
2023/08/24 04:41:19;;;;;;;;;8.00;8.00;;;;;29.57;100.00;100627.97;2113210;27;46199;-61
2023/08/24 04:42:19;;;;;;;;;9.00;9.00;;;;;29.53;100.00;100624.72;2113564;27;46448;-61
2023/08/24 04:43:21;;;;;;;;;10.50;8.75;;;;;29.52;100.00;100620.28;2113357;27;46504;-61